Andrew J. Barberi — WYR3370 — position and weather

sailwx.info

Track history (hours):
 
Tides and Currents Weather Stations Pressure Air Temp Water Temp Dewpoint Dewpoint Depression Visibility Wind Speed Wind Dir Waves Ship Positions

Andrew J. Barberi

Owner: CITY OF NEW YORK, Brooklyn, NY. More information available from US FCC via Universal Licensing System and Coast Guard Vessel Documentation Center.

Last reported at 2017-Jan-20 19:33 UTC. Time now 2017-Jan-20 20:12 UTC.
Position N 40°39' W 074°04'.

Length 94 m; draft 4.3 m.

Type: Ship. MMSI: 367000150.

Date/timePositionNaut miles runAvg speedWind from/ knotsBaromVisibWave heightAir tempDewpointWater temp
2017-Jan-20 19:33N 40°39' W 074°04'0 0.1
2017-Jan-20 18:33N 40°39' W 074°04'4 4.1
2017-Jan-20 17:33N 40°42' W 074°01'4 4.1
2017-Jan-20 16:33N 40°39' W 074°04'0 0.0
2017-Jan-20 15:33N 40°39' W 074°04'0 0.0
2017-Jan-20 14:33N 40°39' W 074°04'3 3.4
2017-Jan-20 13:33N 40°41' W 074°02'0 0.1
2017-Jan-20 12:34N 40°42' W 074°02'1 0.7
2017-Jan-20 11:34N 40°42' W 074°01'4 4.3
2017-Jan-20 10:33N 40°39' W 074°04'0 0.0
2017-Jan-20 09:33N 40°39' W 074°04'0 0.0
2017-Jan-20 08:33N 40°39' W 074°04'0 0.0
2017-Jan-20 07:33N 40°39' W 074°04'0 0.0
2017-Jan-20 06:33N 40°39' W 074°04'0 0.0
2017-Jan-20 05:33N 40°39' W 074°04'0 0.0
2017-Jan-20 04:33N 40°39' W 074°04'0 0.0
2017-Jan-20 03:33N 40°39' W 074°04'0 0.1
2017-Jan-20 02:34N 40°39' W 074°04'4 4.2
2017-Jan-20 01:33N 40°42' W 074°01'4 4.3
2017-Jan-20 00:33N 40°39' W 074°04'0 0.1
2017-Jan-19 23:33N 40°39' W 074°04'0 0.4
2017-Jan-19 22:34N 40°39' W 074°04'4 3.9
2017-Jan-19 21:34N 40°42' W 074°01'0 0.1
2017-Jan-19 20:34N 40°42' W 074°01'4 4.2
2017-Jan-19 19:34N 40°39' W 074°04'0 0.4
2017-Jan-19 18:34N 40°39' W 074°04'4 3.9
2017-Jan-19 17:33N 40°42' W 074°01'4 4.3
2017-Jan-19 16:33N 40°39' W 074°04'0 0.0
2017-Jan-19 15:33N 40°39' W 074°04'0 0.0
2017-Jan-19 14:33N 40°39' W 074°04'3 3.2
2017-Jan-19 13:34N 40°41' W 074°02'0 0.2
2017-Jan-19 12:33N 40°41' W 074°02'1 0.9
2017-Jan-19 11:34N 40°42' W 074°01'4 4.2
2017-Jan-19 10:33N 40°39' W 074°04'0 0.1
2017-Jan-19 09:33N 40°39' W 074°04'0 0.0
2017-Jan-19 08:33N 40°39' W 074°04'0 0.0
2017-Jan-19 07:32N 40°39' W 074°04'0 0.0
2017-Jan-19 06:32N 40°39' W 074°04'0 0.0
2017-Jan-19 05:32N 40°39' W 074°04'0 0.0
2017-Jan-19 04:32N 40°39' W 074°04'0 0.0
2017-Jan-19 03:32N 40°39' W 074°04'0 0.1
2017-Jan-19 02:33N 40°39' W 074°04'4 4.2
2017-Jan-19 01:33N 40°42' W 074°01'4 4.2
2017-Jan-19 00:33N 40°39' W 074°04'0 0.1
2017-Jan-18 23:34N 40°39' W 074°04'0 0.4
2017-Jan-18 22:34N 40°39' W 074°04'4 3.9
2017-Jan-18 21:33N 40°42' W 074°01'0 0.0
2017-Jan-18 20:34N 40°42' W 074°01'4 3.7
2017-Jan-18 19:24N 40°39' W 074°04'0 0.5
2017-Jan-18 18:34N 40°39' W 074°04'4 3.8
2017-Jan-18 17:33N 40°42' W 074°01'4 4.2
2017-Jan-18 16:33N 40°39' W 074°04'0 0.1
2017-Jan-18 15:33N 40°39' W 074°04'0 0.1
2017-Jan-18 14:33N 40°39' W 074°04'3 3.2
2017-Jan-18 13:33N 40°41' W 074°02'0 0.1
2017-Jan-18 12:34N 40°41' W 074°02'1 0.9
2017-Jan-18 11:33N 40°42' W 074°01'4 4.3
2017-Jan-18 10:34N 40°39' W 074°04'0 0.0
2017-Jan-18 09:33N 40°39' W 074°04'0 0.0
2017-Jan-18 07:31N 40°39' W 074°04'0 0.0
2017-Jan-18 06:31N 40°39' W 074°04'0 0.0
2017-Jan-18 05:31N 40°39' W 074°04'0 0.0
2017-Jan-18 04:31N 40°39' W 074°04'0 0.0
2017-Jan-18 03:31N 40°39' W 074°04'0 0.1
2017-Jan-18 02:33N 40°39' W 074°04'4 4.3
2017-Jan-18 01:33N 40°42' W 074°01'4 4.3
2017-Jan-18 00:33N 40°39' W 074°04'0 0.0
2017-Jan-17 23:33N 40°39' W 074°04'0 0.1
2017-Jan-17 22:33N 40°39' W 074°04'4 4.2
2017-Jan-17 21:33N 40°42' W 074°01'0 0.0
2017-Jan-17 20:33N 40°42' W 074°01'4 4.3
2017-Jan-17 19:33N 40°39' W 074°04'0 0.3
2017-Jan-17 18:33N 40°39' W 074°04'0 0.3
2017-Jan-17 17:33N 40°39' W 074°04'0 0.0
2017-Jan-17 16:32N 40°39' W 074°04'0 0.0
2017-Jan-17 15:32N 40°39' W 074°04'0 0.0
2017-Jan-17 14:32N 40°39' W 074°04'0 0.0
2017-Jan-17 13:32N 40°39' W 074°04'0 0.0
2017-Jan-17 12:32N 40°39' W 074°04'0 0.0
2017-Jan-17 11:32N 40°39' W 074°04'0 0.0
2017-Jan-17 10:32N 40°39' W 074°04'0 0.0
2017-Jan-17 09:32N 40°39' W 074°04'0 0.0
2017-Jan-17 08:32N 40°39' W 074°04'0 0.0
2017-Jan-17 07:32N 40°39' W 074°04'0 0.0
2017-Jan-17 06:32N 40°39' W 074°04'0 0.0
2017-Jan-17 05:32N 40°39' W 074°04'0 0.0
2017-Jan-17 04:32N 40°39' W 074°04'0 0.0
2017-Jan-17 03:32N 40°39' W 074°04'0 0.0
2017-Jan-17 02:32N 40°39' W 074°04'0 0.0
2017-Jan-17 01:32N 40°39' W 074°04'0 0.0
2017-Jan-17 00:32N 40°39' W 074°04'0 0.0
2017-Jan-16 23:32N 40°39' W 074°04'0 0.0
2017-Jan-16 22:32N 40°39' W 074°04'0 0.0
2017-Jan-16 21:29N 40°39' W 074°04'0 0.0
2017-Jan-16 20:32N 40°39' W 074°04'0 0.0
2017-Jan-16 19:32N 40°39' W 074°04'0 0.0
2017-Jan-16 18:32N 40°39' W 074°04'0 0.0
2017-Jan-16 17:32N 40°39' W 074°04'0 0.0
2017-Jan-16 16:32N 40°39' W 074°04'0 0.0
2017-Jan-16 15:32N 40°39' W 074°04'0 0.0
2017-Jan-16 14:32N 40°39' W 074°04'0 0.0
2017-Jan-16 13:32N 40°39' W 074°04'0 0.0
2017-Jan-16 12:32N 40°39' W 074°04'0 0.0
2017-Jan-16 11:32N 40°39' W 074°04'0 0.0
2017-Jan-16 10:32N 40°39' W 074°04'0 0.0
2017-Jan-16 09:32N 40°39' W 074°04'0 0.0
2017-Jan-16 08:32N 40°39' W 074°04'0 0.0
2017-Jan-16 07:32N 40°39' W 074°04'0 0.0
2017-Jan-16 06:32N 40°39' W 074°04'0 0.0
2017-Jan-16 05:32N 40°39' W 074°04'0 0.0
2017-Jan-16 04:29N 40°39' W 074°04'0 0.0
2017-Jan-16 03:32N 40°39' W 074°04'0 0.0
2017-Jan-16 02:32N 40°39' W 074°04'0 0.0
2017-Jan-16 01:32N 40°39' W 074°04'0 0.0
2017-Jan-16 00:34N 40°39' W 074°04'0 0.1
2017-Jan-15 23:33N 40°39' W 074°04'0 0.2
2017-Jan-15 22:34N 40°39' W 074°04'4 4.0
2017-Jan-15 21:34N 40°42' W 074°01'4 4.3
2017-Jan-15 20:33N 40°39' W 074°04'0 0.3
2017-Jan-15 19:33N 40°39' W 074°04'4 3.9
2017-Jan-15 18:34N 40°42' W 074°01'4 4.1
2017-Jan-15 17:33N 40°39' W 074°04'0 0.2
2017-Jan-15 16:33N 40°39' W 074°04'0 0.3
2017-Jan-15 15:33N 40°39' W 074°04'0 0.0
2017-Jan-15 14:33N 40°39' W 074°04'0 0.0
2017-Jan-15 13:33N 40°39' W 074°04'0 0.0
2017-Jan-15 12:33N 40°39' W 074°04'0 0.0
2017-Jan-15 11:33N 40°39' W 074°04'0 0.0
2017-Jan-15 10:33N 40°39' W 074°04'0 0.0
2017-Jan-15 09:33N 40°39' W 074°04'0 0.0
2017-Jan-15 08:33N 40°39' W 074°04'0 0.0
2017-Jan-15 07:33N 40°39' W 074°04'0 0.0
2017-Jan-15 06:30N 40°39' W 074°04'0 0.0
2017-Jan-15 05:33N 40°39' W 074°04'0 0.0
2017-Jan-15 04:33N 40°39' W 074°04'0 0.0
2017-Jan-15 03:33N 40°39' W 074°04'0 0.0
2017-Jan-15 02:33N 40°39' W 074°04'0 0.0
2017-Jan-15 01:33N 40°39' W 074°04'0 0.0
2017-Jan-15 00:33N 40°39' W 074°04'0 0.0
2017-Jan-14 23:33N 40°39' W 074°04'0 0.2
2017-Jan-14 22:34N 40°39' W 074°04'4 4.1
2017-Jan-14 21:34N 40°42' W 074°01'4 4.3
2017-Jan-14 20:34N 40°39' W 074°04'0 0.3
2017-Jan-14 19:34N 40°39' W 074°04'4 3.9
2017-Jan-14 18:34N 40°42' W 074°01'4 4.2
2017-Jan-14 17:33N 40°39' W 074°04'0 0.1
2017-Jan-14 16:33N 40°39' W 074°04'0 0.1
2017-Jan-14 15:33N 40°39' W 074°04'0 0.0
2017-Jan-14 14:33N 40°39' W 074°04'0 0.0
2017-Jan-14 13:31N 40°39' W 074°04'0 0.0
2017-Jan-14 12:31N 40°39' W 074°04'0 0.0
2017-Jan-14 11:31N 40°39' W 074°04'0 0.0
2017-Jan-14 10:31N 40°39' W 074°04'0 0.0
2017-Jan-14 09:31N 40°39' W 074°04'0 0.0
2017-Jan-14 08:31N 40°39' W 074°04'0 0.0
2017-Jan-14 07:31N 40°39' W 074°04'0 0.0
2017-Jan-14 06:31N 40°39' W 074°04'0 0.0
2017-Jan-14 05:31N 40°39' W 074°04'0 0.0
2017-Jan-14 04:31N 40°39' W 074°04'0 0.0
2017-Jan-14 03:31N 40°39' W 074°04'0 0.0
2017-Jan-13 23:33N 40°39' W 074°04'0 0.2
2017-Jan-13 22:33N 40°39' W 074°04'4 3.9
2017-Jan-13 21:33N 40°42' W 074°01'0 0.2
2017-Jan-13 20:33N 40°42' W 074°01'4 4.3
2017-Jan-13 19:33N 40°39' W 074°04'0 0.1
2017-Jan-13 18:34N 40°39' W 074°04'1 1.1
2017-Jan-13 17:34N 40°38' W 074°04'1 1.0
2017-Jan-13 16:32N 40°39' W 074°04'0 0.0
2017-Jan-13 15:32N 40°39' W 074°04'0 0.0
2017-Jan-13 14:33N 40°39' W 074°04'3 3.4
2017-Jan-13 13:34N 40°41' W 074°02'1 0.5
2017-Jan-13 12:34N 40°42' W 074°01'0 0.4
2017-Jan-13 11:34N 40°42' W 074°01'4 4.2
2017-Jan-13 10:33N 40°39' W 074°04'0 0.0
2017-Jan-13 09:33N 40°39' W 074°04'0 0.0
2017-Jan-13 08:31N 40°39' W 074°04'0 0.0
2017-Jan-13 07:31N 40°39' W 074°04'0 0.0
2017-Jan-13 06:31N 40°39' W 074°04'0 0.0
2017-Jan-13 05:28N 40°39' W 074°04'0 0.0
2017-Jan-13 04:31N 40°39' W 074°04'0 0.0
2017-Jan-13 03:31N 40°39' W 074°04'0 0.1
2017-Jan-13 02:33N 40°39' W 074°04'4 4.2
2017-Jan-13 01:34N 40°42' W 074°01'4 4.1
2017-Jan-13 00:33N 40°39' W 074°04'0 0.0
2017-Jan-12 23:33N 40°39' W 074°04'0 0.3
2017-Jan-12 22:33N 40°39' W 074°04'4 4.0
2017-Jan-12 21:34N 40°42' W 074°01'0 0.0
2017-Jan-12 20:34N 40°42' W 074°01'4 4.3
2017-Jan-12 19:33N 40°39' W 074°04'0 0.0
2017-Jan-12 18:34N 40°39' W 074°04'4 4.3
2017-Jan-12 17:34N 40°42' W 074°01'4 2.2
2017-Jan-12 15:33N 40°39' W 074°04'0 0.1
2017-Jan-12 14:34N 40°39' W 074°04'3 3.2
2017-Jan-12 13:33N 40°41' W 074°02'1 0.8
2017-Jan-12 12:34N 40°42' W 074°01'0 0.2
2017-Jan-12 11:34N 40°42' W 074°01'4 4.2
2017-Jan-12 10:33N 40°39' W 074°04'0 0.0
2017-Jan-12 09:33N 40°39' W 074°04'0 0.0
2017-Jan-12 08:33N 40°39' W 074°04'0 0.0
2017-Jan-12 07:31N 40°39' W 074°04'0 0.0
2017-Jan-12 06:31N 40°39' W 074°04'0 0.0
2017-Jan-12 05:31N 40°39' W 074°04'0 0.0
2017-Jan-12 04:31N 40°39' W 074°04'0 0.0
2017-Jan-12 03:31N 40°39' W 074°04'0 0.0
2017-Jan-12 02:33N 40°39' W 074°04'4 4.2
2017-Jan-12 01:34N 40°42' W 074°01'4 4.2
2017-Jan-12 00:33N 40°39' W 074°04'0 0.0
2017-Jan-11 23:30N 40°39' W 074°04'0 0.0
2017-Jan-11 22:33N 40°39' W 074°04'4 4.3
2017-Jan-11 21:33N 40°42' W 074°01'0 0.1
2017-Jan-11 20:33N 40°42' W 074°01'4 4.3
2017-Jan-11 19:33N 40°39' W 074°04'0 0.3
2017-Jan-11 18:34N 40°39' W 074°04'4 3.9
2017-Jan-11 17:34N 40°42' W 074°01'4 4.2
2017-Jan-11 16:33N 40°39' W 074°04'0 0.0
2017-Jan-11 15:34N 40°39' W 074°04'0 0.2
2017-Jan-11 14:34N 40°39' W 074°04'4 3.7
2017-Jan-11 13:34N 40°42' W 074°01'0 0.2
2017-Jan-11 12:33N 40°42' W 074°01'0 0.1
2017-Jan-11 11:34N 40°42' W 074°01'4 4.0
2017-Jan-11 10:34N 40°39' W 074°04'0 0.0
2017-Jan-11 09:33N 40°39' W 074°04'0 0.0
2017-Jan-11 08:33N 40°39' W 074°04'0 0.0
2017-Jan-11 07:31N 40°39' W 074°04'0 0.0
2017-Jan-11 06:33N 40°39' W 074°04'0 0.0
2017-Jan-11 05:33N 40°39' W 074°04'0 0.0
2017-Jan-11 04:31N 40°39' W 074°04'0 0.0
2017-Jan-11 03:34N 40°39' W 074°04'0 0.0
2017-Jan-11 02:34N 40°39' W 074°04'4 4.2
2017-Jan-11 01:33N 40°42' W 074°01'4 4.2
2017-Jan-11 00:33N 40°39' W 074°04'0 0.0
2017-Jan-10 23:28N 40°39' W 074°04'0 0.0
2017-Jan-10 22:28N 40°39' W 074°04'4 4.7
2017-Jan-10 21:33N 40°42' W 074°01'0 0.1
2017-Jan-10 20:33N 40°42' W 074°01'4 4.3
2017-Jan-10 19:33N 40°39' W 074°04'  
Track history (hours):
 
Tides and Currents Weather Stations Pressure Air Temp Water Temp Dewpoint Dewpoint Depression Visibility Wind Speed Wind Dir Waves Ship Positions

Andrew J. Barberi

Owner: CITY OF NEW YORK, Brooklyn, NY. More information available from US FCC via Universal Licensing System and Coast Guard Vessel Documentation Center.

Last reported at 2017-Jan-20 19:33 UTC. Time now 2017-Jan-20 20:12 UTC.
Position N 40°39' W 074°04'.

Length 94 m; draft 4.3 m.

Type: Ship. MMSI: 367000150.

Date/timePositionNaut miles runAvg speedWind from/ knotsBaromVisibWave heightAir tempDewpointWater temp
2017-Jan-20 19:33N 40°39' W 074°04'0 0.1
2017-Jan-20 18:33N 40°39' W 074°04'4 4.1
2017-Jan-20 17:33N 40°42' W 074°01'4 4.1
2017-Jan-20 16:33N 40°39' W 074°04'0 0.0
2017-Jan-20 15:33N 40°39' W 074°04'0 0.0
2017-Jan-20 14:33N 40°39' W 074°04'3 3.4
2017-Jan-20 13:33N 40°41' W 074°02'0 0.1
2017-Jan-20 12:34N 40°42' W 074°02'1 0.7
2017-Jan-20 11:34N 40°42' W 074°01'4 4.3
2017-Jan-20 10:33N 40°39' W 074°04'0 0.0
2017-Jan-20 09:33N 40°39' W 074°04'0 0.0
2017-Jan-20 08:33N 40°39' W 074°04'0 0.0
2017-Jan-20 07:33N 40°39' W 074°04'0 0.0
2017-Jan-20 06:33N 40°39' W 074°04'0 0.0
2017-Jan-20 05:33N 40°39' W 074°04'0 0.0
2017-Jan-20 04:33N 40°39' W 074°04'0 0.0
2017-Jan-20 03:33N 40°39' W 074°04'0 0.1
2017-Jan-20 02:34N 40°39' W 074°04'4 4.2
2017-Jan-20 01:33N 40°42' W 074°01'4 4.3
2017-Jan-20 00:33N 40°39' W 074°04'0 0.1
2017-Jan-19 23:33N 40°39' W 074°04'0 0.4
2017-Jan-19 22:34N 40°39' W 074°04'4 3.9
2017-Jan-19 21:34N 40°42' W 074°01'0 0.1
2017-Jan-19 20:34N 40°42' W 074°01'4 4.2
2017-Jan-19 19:34N 40°39' W 074°04'0 0.4
2017-Jan-19 18:34N 40°39' W 074°04'4 3.9
2017-Jan-19 17:33N 40°42' W 074°01'4 4.3
2017-Jan-19 16:33N 40°39' W 074°04'0 0.0
2017-Jan-19 15:33N 40°39' W 074°04'0 0.0
2017-Jan-19 14:33N 40°39' W 074°04'3 3.2
2017-Jan-19 13:34N 40°41' W 074°02'0 0.2
2017-Jan-19 12:33N 40°41' W 074°02'1 0.9
2017-Jan-19 11:34N 40°42' W 074°01'4 4.2
2017-Jan-19 10:33N 40°39' W 074°04'0 0.1
2017-Jan-19 09:33N 40°39' W 074°04'0 0.0
2017-Jan-19 08:33N 40°39' W 074°04'0 0.0
2017-Jan-19 07:32N 40°39' W 074°04'0 0.0
2017-Jan-19 06:32N 40°39' W 074°04'0 0.0
2017-Jan-19 05:32N 40°39' W 074°04'0 0.0
2017-Jan-19 04:32N 40°39' W 074°04'0 0.0
2017-Jan-19 03:32N 40°39' W 074°04'0 0.1
2017-Jan-19 02:33N 40°39' W 074°04'4 4.2
2017-Jan-19 01:33N 40°42' W 074°01'4 4.2
2017-Jan-19 00:33N 40°39' W 074°04'0 0.1
2017-Jan-18 23:34N 40°39' W 074°04'0 0.4
2017-Jan-18 22:34N 40°39' W 074°04'4 3.9
2017-Jan-18 21:33N 40°42' W 074°01'0 0.0
2017-Jan-18 20:34N 40°42' W 074°01'4 3.7
2017-Jan-18 19:24N 40°39' W 074°04'0 0.5
2017-Jan-18 18:34N 40°39' W 074°04'4 3.8
2017-Jan-18 17:33N 40°42' W 074°01'4 4.2
2017-Jan-18 16:33N 40°39' W 074°04'0 0.1
2017-Jan-18 15:33N 40°39' W 074°04'0 0.1
2017-Jan-18 14:33N 40°39' W 074°04'3 3.2
2017-Jan-18 13:33N 40°41' W 074°02'0 0.1
2017-Jan-18 12:34N 40°41' W 074°02'1 0.9
2017-Jan-18 11:33N 40°42' W 074°01'4 4.3
2017-Jan-18 10:34N 40°39' W 074°04'0 0.0
2017-Jan-18 09:33N 40°39' W 074°04'0 0.0
2017-Jan-18 07:31N 40°39' W 074°04'0 0.0
2017-Jan-18 06:31N 40°39' W 074°04'0 0.0
2017-Jan-18 05:31N 40°39' W 074°04'0 0.0
2017-Jan-18 04:31N 40°39' W 074°04'0 0.0
2017-Jan-18 03:31N 40°39' W 074°04'0 0.1
2017-Jan-18 02:33N 40°39' W 074°04'4 4.3
2017-Jan-18 01:33N 40°42' W 074°01'4 4.3
2017-Jan-18 00:33N 40°39' W 074°04'0 0.0
2017-Jan-17 23:33N 40°39' W 074°04'0 0.1
2017-Jan-17 22:33N 40°39' W 074°04'4 4.2
2017-Jan-17 21:33N 40°42' W 074°01'0 0.0
2017-Jan-17 20:33N 40°42' W 074°01'4 4.3
2017-Jan-17 19:33N 40°39' W 074°04'0 0.3
2017-Jan-17 18:33N 40°39' W 074°04'0 0.3
2017-Jan-17 17:33N 40°39' W 074°04'0 0.0
2017-Jan-17 16:32N 40°39' W 074°04'0 0.0
2017-Jan-17 15:32N 40°39' W 074°04'0 0.0
2017-Jan-17 14:32N 40°39' W 074°04'0 0.0
2017-Jan-17 13:32N 40°39' W 074°04'0 0.0
2017-Jan-17 12:32N 40°39' W 074°04'0 0.0
2017-Jan-17 11:32N 40°39' W 074°04'0 0.0
2017-Jan-17 10:32N 40°39' W 074°04'0 0.0
2017-Jan-17 09:32N 40°39' W 074°04'0 0.0
2017-Jan-17 08:32N 40°39' W 074°04'0 0.0
2017-Jan-17 07:32N 40°39' W 074°04'0 0.0
2017-Jan-17 06:32N 40°39' W 074°04'0 0.0
2017-Jan-17 05:32N 40°39' W 074°04'0 0.0
2017-Jan-17 04:32N 40°39' W 074°04'0 0.0
2017-Jan-17 03:32N 40°39' W 074°04'0 0.0
2017-Jan-17 02:32N 40°39' W 074°04'0 0.0
2017-Jan-17 01:32N 40°39' W 074°04'0 0.0
2017-Jan-17 00:32N 40°39' W 074°04'0 0.0
2017-Jan-16 23:32N 40°39' W 074°04'0 0.0
2017-Jan-16 22:32N 40°39' W 074°04'0 0.0
2017-Jan-16 21:29N 40°39' W 074°04'0 0.0
2017-Jan-16 20:32N 40°39' W 074°04'0 0.0
2017-Jan-16 19:32N 40°39' W 074°04'0 0.0
2017-Jan-16 18:32N 40°39' W 074°04'0 0.0
2017-Jan-16 17:32N 40°39' W 074°04'0 0.0
2017-Jan-16 16:32N 40°39' W 074°04'0 0.0
2017-Jan-16 15:32N 40°39' W 074°04'0 0.0
2017-Jan-16 14:32N 40°39' W 074°04'0 0.0
2017-Jan-16 13:32N 40°39' W 074°04'0 0.0
2017-Jan-16 12:32N 40°39' W 074°04'0 0.0
2017-Jan-16 11:32N 40°39' W 074°04'0 0.0
2017-Jan-16 10:32N 40°39' W 074°04'0 0.0
2017-Jan-16 09:32N 40°39' W 074°04'0 0.0
2017-Jan-16 08:32N 40°39' W 074°04'0 0.0
2017-Jan-16 07:32N 40°39' W 074°04'0 0.0
2017-Jan-16 06:32N 40°39' W 074°04'0 0.0
2017-Jan-16 05:32N 40°39' W 074°04'0 0.0
2017-Jan-16 04:29N 40°39' W 074°04'0 0.0
2017-Jan-16 03:32N 40°39' W 074°04'0 0.0
2017-Jan-16 02:32N 40°39' W 074°04'0 0.0
2017-Jan-16 01:32N 40°39' W 074°04'0 0.0
2017-Jan-16 00:34N 40°39' W 074°04'0 0.1
2017-Jan-15 23:33N 40°39' W 074°04'0 0.2
2017-Jan-15 22:34N 40°39' W 074°04'4 4.0
2017-Jan-15 21:34N 40°42' W 074°01'4 4.3
2017-Jan-15 20:33N 40°39' W 074°04'0 0.3
2017-Jan-15 19:33N 40°39' W 074°04'4 3.9
2017-Jan-15 18:34N 40°42' W 074°01'4 4.1
2017-Jan-15 17:33N 40°39' W 074°04'0 0.2
2017-Jan-15 16:33N 40°39' W 074°04'0 0.3
2017-Jan-15 15:33N 40°39' W 074°04'0 0.0
2017-Jan-15 14:33N 40°39' W 074°04'0 0.0
2017-Jan-15 13:33N 40°39' W 074°04'0 0.0
2017-Jan-15 12:33N 40°39' W 074°04'0 0.0
2017-Jan-15 11:33N 40°39' W 074°04'0 0.0
2017-Jan-15 10:33N 40°39' W 074°04'0 0.0
2017-Jan-15 09:33N 40°39' W 074°04'0 0.0
2017-Jan-15 08:33N 40°39' W 074°04'0 0.0
2017-Jan-15 07:33N 40°39' W 074°04'0 0.0
2017-Jan-15 06:30N 40°39' W 074°04'0 0.0
2017-Jan-15 05:33N 40°39' W 074°04'0 0.0
2017-Jan-15 04:33N 40°39' W 074°04'0 0.0
2017-Jan-15 03:33N 40°39' W 074°04'0 0.0
2017-Jan-15 02:33N 40°39' W 074°04'0 0.0
2017-Jan-15 01:33N 40°39' W 074°04'0 0.0
2017-Jan-15 00:33N 40°39' W 074°04'0 0.0
2017-Jan-14 23:33N 40°39' W 074°04'0 0.2
2017-Jan-14 22:34N 40°39' W 074°04'4 4.1
2017-Jan-14 21:34N 40°42' W 074°01'4 4.3
2017-Jan-14 20:34N 40°39' W 074°04'0 0.3
2017-Jan-14 19:34N 40°39' W 074°04'4 3.9
2017-Jan-14 18:34N 40°42' W 074°01'4 4.2
2017-Jan-14 17:33N 40°39' W 074°04'0 0.1
2017-Jan-14 16:33N 40°39' W 074°04'0 0.1
2017-Jan-14 15:33N 40°39' W 074°04'0 0.0
2017-Jan-14 14:33N 40°39' W 074°04'0 0.0
2017-Jan-14 13:31N 40°39' W 074°04'0 0.0
2017-Jan-14 12:31N 40°39' W 074°04'0 0.0
2017-Jan-14 11:31N 40°39' W 074°04'0 0.0
2017-Jan-14 10:31N 40°39' W 074°04'0 0.0
2017-Jan-14 09:31N 40°39' W 074°04'0 0.0
2017-Jan-14 08:31N 40°39' W 074°04'0 0.0
2017-Jan-14 07:31N 40°39' W 074°04'0 0.0
2017-Jan-14 06:31N 40°39' W 074°04'0 0.0
2017-Jan-14 05:31N 40°39' W 074°04'0 0.0
2017-Jan-14 04:31N 40°39' W 074°04'0 0.0
2017-Jan-14 03:31N 40°39' W 074°04'0 0.0
2017-Jan-13 23:33N 40°39' W 074°04'0 0.2
2017-Jan-13 22:33N 40°39' W 074°04'4 3.9
2017-Jan-13 21:33N 40°42' W 074°01'0 0.2
2017-Jan-13 20:33N 40°42' W 074°01'4 4.3
2017-Jan-13 19:33N 40°39' W 074°04'0 0.1
2017-Jan-13 18:34N 40°39' W 074°04'1 1.1
2017-Jan-13 17:34N 40°38' W 074°04'1 1.0
2017-Jan-13 16:32N 40°39' W 074°04'0 0.0
2017-Jan-13 15:32N 40°39' W 074°04'0 0.0
2017-Jan-13 14:33N 40°39' W 074°04'3 3.4
2017-Jan-13 13:34N 40°41' W 074°02'1 0.5
2017-Jan-13 12:34N 40°42' W 074°01'0 0.4
2017-Jan-13 11:34N 40°42' W 074°01'4 4.2
2017-Jan-13 10:33N 40°39' W 074°04'0 0.0
2017-Jan-13 09:33N 40°39' W 074°04'0 0.0
2017-Jan-13 08:31N 40°39' W 074°04'0 0.0
2017-Jan-13 07:31N 40°39' W 074°04'0 0.0
2017-Jan-13 06:31N 40°39' W 074°04'0 0.0
2017-Jan-13 05:28N 40°39' W 074°04'0 0.0
2017-Jan-13 04:31N 40°39' W 074°04'0 0.0
2017-Jan-13 03:31N 40°39' W 074°04'0 0.1
2017-Jan-13 02:33N 40°39' W 074°04'4 4.2
2017-Jan-13 01:34N 40°42' W 074°01'4 4.1
2017-Jan-13 00:33N 40°39' W 074°04'0 0.0
2017-Jan-12 23:33N 40°39' W 074°04'0 0.3
2017-Jan-12 22:33N 40°39' W 074°04'4 4.0
2017-Jan-12 21:34N 40°42' W 074°01'0 0.0
2017-Jan-12 20:34N 40°42' W 074°01'4 4.3
2017-Jan-12 19:33N 40°39' W 074°04'0 0.0
2017-Jan-12 18:34N 40°39' W 074°04'4 4.3
2017-Jan-12 17:34N 40°42' W 074°01'4 2.2
2017-Jan-12 15:33N 40°39' W 074°04'0 0.1
2017-Jan-12 14:34N 40°39' W 074°04'3 3.2
2017-Jan-12 13:33N 40°41' W 074°02'1 0.8
2017-Jan-12 12:34N 40°42' W 074°01'0 0.2
2017-Jan-12 11:34N 40°42' W 074°01'4 4.2
2017-Jan-12 10:33N 40°39' W 074°04'0 0.0
2017-Jan-12 09:33N 40°39' W 074°04'0 0.0
2017-Jan-12 08:33N 40°39' W 074°04'0 0.0
2017-Jan-12 07:31N 40°39' W 074°04'0 0.0
2017-Jan-12 06:31N 40°39' W 074°04'0 0.0
2017-Jan-12 05:31N 40°39' W 074°04'0 0.0
2017-Jan-12 04:31N 40°39' W 074°04'0 0.0
2017-Jan-12 03:31N 40°39' W 074°04'0 0.0
2017-Jan-12 02:33N 40°39' W 074°04'4 4.2
2017-Jan-12 01:34N 40°42' W 074°01'4 4.2
2017-Jan-12 00:33N 40°39' W 074°04'0 0.0
2017-Jan-11 23:30N 40°39' W 074°04'0 0.0
2017-Jan-11 22:33N 40°39' W 074°04'4 4.3
2017-Jan-11 21:33N 40°42' W 074°01'0 0.1
2017-Jan-11 20:33N 40°42' W 074°01'4 4.3
2017-Jan-11 19:33N 40°39' W 074°04'0 0.3
2017-Jan-11 18:34N 40°39' W 074°04'4 3.9
2017-Jan-11 17:34N 40°42' W 074°01'4 4.2
2017-Jan-11 16:33N 40°39' W 074°04'0 0.0
2017-Jan-11 15:34N 40°39' W 074°04'0 0.2
2017-Jan-11 14:34N 40°39' W 074°04'4 3.7
2017-Jan-11 13:34N 40°42' W 074°01'0 0.2
2017-Jan-11 12:33N 40°42' W 074°01'0 0.1
2017-Jan-11 11:34N 40°42' W 074°01'4 4.0
2017-Jan-11 10:34N 40°39' W 074°04'0 0.0
2017-Jan-11 09:33N 40°39' W 074°04'0 0.0
2017-Jan-11 08:33N 40°39' W 074°04'0 0.0
2017-Jan-11 07:31N 40°39' W 074°04'0 0.0
2017-Jan-11 06:33N 40°39' W 074°04'0 0.0
2017-Jan-11 05:33N 40°39' W 074°04'0 0.0
2017-Jan-11 04:31N 40°39' W 074°04'0 0.0
2017-Jan-11 03:34N 40°39' W 074°04'0 0.0
2017-Jan-11 02:34N 40°39' W 074°04'4 4.2
2017-Jan-11 01:33N 40°42' W 074°01'4 4.2
2017-Jan-11 00:33N 40°39' W 074°04'0 0.0
2017-Jan-10 23:28N 40°39' W 074°04'0 0.0
2017-Jan-10 22:28N 40°39' W 074°04'4 4.7
2017-Jan-10 21:33N 40°42' W 074°01'0 0.1
2017-Jan-10 20:33N 40°42' W 074°01'4 4.3
2017-Jan-10 19:33N 40°39' W 074°04'  

Dump ship's entire track history